sensor_id;sensor_type;location;lat;lon;timestamp;pressure;altitude;pressure_sealevel;temperature;humidity
75045;BME280;63614;56.026;35.960;2023-05-07T00:00:23;100337.66;;;-0.99;66.92
75045;BME280;63614;56.026;35.960;2023-05-07T00:02:48;100344.38;;;-0.98;66.67
75045;BME280;63614;56.026;35.960;2023-05-07T00:05:14;100345.66;;;-1.05;67.10
75045;BME280;63614;56.026;35.960;2023-05-07T00:07:40;100353.88;;;-1.00;66.60
75045;BME280;63614;56.026;35.960;2023-05-07T00:10:06;100347.09;;;-1.01;66.81
75045;BME280;63614;56.026;35.960;2023-05-07T00:12:32;100346.28;;;-1.01;66.56
75045;BME280;63614;56.026;35.960;2023-05-07T00:15:05;100354.03;;;-1.03;66.71
75045;BME280;63614;56.026;35.960;2023-05-07T00:17:33;100357.59;;;-1.05;66.52
75045;BME280;63614;56.026;35.960;2023-05-07T00:19:59;100353.03;;;-1.15;66.81
75045;BME280;63614;56.026;35.960;2023-05-07T00:22:25;100355.84;;;-1.19;67.29
75045;BME280;63614;56.026;35.960;2023-05-07T00:24:51;100361.59;;;-1.16;67.97
75045;BME280;63614;56.026;35.960;2023-05-07T00:27:19;100352.00;;;-1.12;67.14
75045;BME280;63614;56.026;35.960;2023-05-07T00:29:45;100357.56;;;-1.20;67.16
75045;BME280;63614;56.026;35.960;2023-05-07T00:32:11;100355.38;;;-1.26;67.17
75045;BME280;63614;56.026;35.960;2023-05-07T00:34:37;100357.47;;;-1.18;66.97
75045;BME280;63614;56.026;35.960;2023-05-07T00:37:05;100353.63;;;-1.25;67.72
75045;BME280;63614;56.026;35.960;2023-05-07T00:39:33;100359.56;;;-1.25;67.98
75045;BME280;63614;56.026;35.960;2023-05-07T00:41:59;100367.94;;;-1.23;67.65
75045;BME280;63614;56.026;35.960;2023-05-07T00:44:26;100358.56;;;-1.22;67.26
75045;BME280;63614;56.026;35.960;2023-05-07T00:46:53;100362.94;;;-1.24;67.64
75045;BME280;63614;56.026;35.960;2023-05-07T00:49:19;100353.09;;;-1.31;67.99
75045;BME280;63614;56.026;35.960;2023-05-07T00:51:45;100359.72;;;-1.28;67.71
75045;BME280;63614;56.026;35.960;2023-05-07T00:54:13;100367.38;;;-1.28;67.43
75045;BME280;63614;56.026;35.960;2023-05-07T00:56:39;100367.22;;;-1.25;67.42
75045;BME280;63614;56.026;35.960;2023-05-07T00:59:06;100358.41;;;-1.19;66.47
75045;BME280;63614;56.026;35.960;2023-05-07T01:01:32;100368.78;;;-1.22;66.32
75045;BME280;63614;56.026;35.960;2023-05-07T01:03:57;100359.19;;;-1.33;65.88
75045;BME280;63614;56.026;35.960;2023-05-07T01:06:24;100364.06;;;-1.44;67.19
75045;BME280;63614;56.026;35.960;2023-05-07T01:08:53;100361.44;;;-1.43;67.19
75045;BME280;63614;56.026;35.960;2023-05-07T01:11:22;100373.41;;;-1.59;67.24
75045;BME280;63614;56.026;35.960;2023-05-07T01:13:49;100374.38;;;-1.62;67.64
75045;BME280;63614;56.026;35.960;2023-05-07T01:16:15;100369.13;;;-1.59;67.68
75045;BME280;63614;56.026;35.960;2023-05-07T01:18:41;100377.16;;;-1.51;67.48
75045;BME280;63614;56.026;35.960;2023-05-07T01:21:10;100372.22;;;-1.54;67.60
75045;BME280;63614;56.026;35.960;2023-05-07T01:23:37;100375.50;;;-1.52;67.16
75045;BME280;63614;56.026;35.960;2023-05-07T01:26:03;100378.72;;;-1.48;66.94
75045;BME280;63614;56.026;35.960;2023-05-07T01:28:31;100380.44;;;-1.49;67.11
75045;BME280;63614;56.026;35.960;2023-05-07T01:31:02;100384.25;;;-1.56;67.22
75045;BME280;63614;56.026;35.960;2023-05-07T01:33:32;100384.25;;;-1.56;67.00
75045;BME280;63614;56.026;35.960;2023-05-07T01:35:59;100388.88;;;-1.62;67.23
75045;BME280;63614;56.026;35.960;2023-05-07T01:38:28;100376.28;;;-1.66;66.82
75045;BME280;63614;56.026;35.960;2023-05-07T01:40:55;100379.59;;;-1.79;67.70
75045;BME280;63614;56.026;35.960;2023-05-07T01:43:21;100384.94;;;-1.84;67.64
75045;BME280;63614;56.026;35.960;2023-05-07T01:45:47;100394.06;;;-1.80;67.85
75045;BME280;63614;56.026;35.960;2023-05-07T01:48:14;100389.22;;;-1.85;67.53
75045;BME280;63614;56.026;35.960;2023-05-07T01:50:41;100395.94;;;-1.68;67.18
75045;BME280;63614;56.026;35.960;2023-05-07T01:53:08;100399.63;;;-1.41;66.38
75045;BME280;63614;56.026;35.960;2023-05-07T01:55:34;100402.78;;;-1.22;65.43
75045;BME280;63614;56.026;35.960;2023-05-07T01:58:03;100404.22;;;-1.02;64.64
75045;BME280;63614;56.026;35.960;2023-05-07T02:00:29;100408.16;;;-0.82;64.34
75045;BME280;63614;56.026;35.960;2023-05-07T02:02:54;100403.72;;;-0.64;63.39
75045;BME280;63614;56.026;35.960;2023-05-07T02:05:38;100400.25;;;-0.34;62.85
75045;BME280;63614;56.026;35.960;2023-05-07T02:08:13;100407.06;;;-0.06;61.97
75045;BME280;63614;56.026;35.960;2023-05-07T02:10:39;100410.22;;;0.12;61.12
75045;BME280;63614;56.026;35.960;2023-05-07T02:13:06;100413.19;;;0.33;60.78
75045;BME280;63614;56.026;35.960;2023-05-07T02:15:31;100414.09;;;0.60;60.21
75045;BME280;63614;56.026;35.960;2023-05-07T02:18:05;100409.97;;;0.97;58.95
75045;BME280;63614;56.026;35.960;2023-05-07T02:20:32;100414.00;;;1.27;58.18
75045;BME280;63614;56.026;35.960;2023-05-07T02:22:58;100405.59;;;1.38;56.73
75045;BME280;63614;56.026;35.960;2023-05-07T02:25:26;100416.34;;;1.56;56.31
75045;BME280;63614;56.026;35.960;2023-05-07T02:27:52;100416.56;;;1.40;55.95
75045;BME280;63614;56.026;35.960;2023-05-07T02:30:25;100418.63;;;1.35;57.09
75045;BME280;63614;56.026;35.960;2023-05-07T02:32:57;100421.16;;;1.73;55.92
75045;BME280;63614;56.026;35.960;2023-05-07T02:35:26;100425.03;;;2.29;54.71
75045;BME280;63614;56.026;35.960;2023-05-07T02:37:52;100428.19;;;2.32;54.94
75045;BME280;63614;56.026;35.960;2023-05-07T02:40:18;100428.38;;;2.42;54.97
75045;BME280;63614;56.026;35.960;2023-05-07T02:42:44;100433.31;;;2.81;54.24
75045;BME280;63614;56.026;35.960;2023-05-07T02:45:10;100428.53;;;2.76;54.51
75045;BME280;63614;56.026;35.960;2023-05-07T02:47:37;100427.53;;;3.01;53.90
75045;BME280;63614;56.026;35.960;2023-05-07T02:50:04;100440.72;;;3.43;53.23
75045;BME280;63614;56.026;35.960;2023-05-07T02:52:30;100439.66;;;3.57;52.85
75045;BME280;63614;56.026;35.960;2023-05-07T02:54:56;100445.75;;;3.45;53.62
75045;BME280;63614;56.026;35.960;2023-05-07T02:57:22;100437.31;;;4.11;51.66
75045;BME280;63614;56.026;35.960;2023-05-07T02:59:48;100439.75;;;4.56;50.87
75045;BME280;63614;56.026;35.960;2023-05-07T03:02:15;100444.84;;;4.79;50.21
75045;BME280;63614;56.026;35.960;2023-05-07T03:04:41;100436.94;;;5.34;49.52
75045;BME280;63614;56.026;35.960;2023-05-07T03:07:07;100433.34;;;6.17;47.09
75045;BME280;63614;56.026;35.960;2023-05-07T03:09:33;100438.66;;;6.26;46.15
75045;BME280;63614;56.026;35.960;2023-05-07T03:11:58;100435.78;;;6.97;44.92
75045;BME280;63614;56.026;35.960;2023-05-07T03:14:24;100442.13;;;7.42;44.29
75045;BME280;63614;56.026;35.960;2023-05-07T03:16:50;100445.41;;;7.34;43.26
75045;BME280;63614;56.026;35.960;2023-05-07T03:19:16;100440.75;;;7.48;43.04
75045;BME280;63614;56.026;35.960;2023-05-07T03:21:42;100439.19;;;7.17;44.56
75045;BME280;63614;56.026;35.960;2023-05-07T03:24:08;100447.47;;;7.21;44.32
75045;BME280;63614;56.026;35.960;2023-05-07T03:26:33;100443.06;;;7.78;44.24
75045;BME280;63614;56.026;35.960;2023-05-07T03:29:00;100451.91;;;7.86;43.13
75045;BME280;63614;56.026;35.960;2023-05-07T03:31:28;100450.59;;;8.27;42.96
75045;BME280;63614;56.026;35.960;2023-05-07T03:33:56;100451.66;;;9.06;41.71
75045;BME280;63614;56.026;35.960;2023-05-07T03:36:23;100466.00;;;9.19;40.22
75045;BME280;63614;56.026;35.960;2023-05-07T03:38:50;100456.94;;;9.84;39.67
75045;BME280;63614;56.026;35.960;2023-05-07T03:41:19;100456.72;;;10.11;39.35
75045;BME280;63614;56.026;35.960;2023-05-07T03:43:46;100468.41;;;10.07;38.21
75045;BME280;63614;56.026;35.960;2023-05-07T03:46:12;100457.97;;;9.56;39.38
75045;BME280;63614;56.026;35.960;2023-05-07T03:48:38;100459.84;;;9.46;39.01
75045;BME280;63614;56.026;35.960;2023-05-07T03:51:05;100462.19;;;10.51;36.54
75045;BME280;63614;56.026;35.960;2023-05-07T03:53:32;100464.31;;;10.56;35.65
75045;BME280;63614;56.026;35.960;2023-05-07T03:55:58;100469.56;;;11.05;34.84
75045;BME280;63614;56.026;35.960;2023-05-07T03:58:24;100479.13;;;10.71;35.43
75045;BME280;63614;56.026;35.960;2023-05-07T04:00:50;100479.44;;;11.34;34.08
75045;BME280;63614;56.026;35.960;2023-05-07T04:03:24;100479.38;;;11.67;33.38
75045;BME280;63614;56.026;35.960;2023-05-07T04:05:50;100480.69;;;12.11;32.84
75045;BME280;63614;56.026;35.960;2023-05-07T04:08:16;100485.78;;;12.59;31.77
75045;BME280;63614;56.026;35.960;2023-05-07T04:10:46;100482.94;;;13.30;30.90
75045;BME280;63614;56.026;35.960;2023-05-07T04:13:12;100490.13;;;13.13;31.25
75045;BME280;63614;56.026;35.960;2023-05-07T04:15:38;100492.25;;;12.71;31.11
75045;BME280;63614;56.026;35.960;2023-05-07T04:18:08;100492.38;;;13.39;30.53
75045;BME280;63614;56.026;35.960;2023-05-07T04:20:35;100489.69;;;13.47;30.46
75045;BME280;63614;56.026;35.960;2023-05-07T04:23:07;100492.78;;;14.17;29.19
75045;BME280;63614;56.026;35.960;2023-05-07T04:25:34;100498.22;;;14.52;29.00
75045;BME280;63614;56.026;35.960;2023-05-07T04:28:09;100492.88;;;14.60;28.55
75045;BME280;63614;56.026;35.960;2023-05-07T04:30:36;100493.31;;;14.85;28.26
75045;BME280;63614;56.026;35.960;2023-05-07T04:33:05;100494.53;;;15.11;28.22
75045;BME280;63614;56.026;35.960;2023-05-07T04:35:33;100503.19;;;15.12;28.20
75045;BME280;63614;56.026;35.960;2023-05-07T04:37:59;100507.47;;;14.54;28.66
75045;BME280;63614;56.026;35.960;2023-05-07T04:40:25;100503.69;;;14.57;28.31
75045;BME280;63614;56.026;35.960;2023-05-07T04:42:51;100513.16;;;14.58;28.83
75045;BME280;63614;56.026;35.960;2023-05-07T04:45:18;100504.03;;;15.47;27.40
75045;BME280;63614;56.026;35.960;2023-05-07T04:47:46;100512.78;;;14.76;28.05
75045;BME280;63614;56.026;35.960;2023-05-07T04:50:12;100513.19;;;14.80;28.28
75045;BME280;63614;56.026;35.960;2023-05-07T04:52:40;100511.06;;;14.90;28.18
75045;BME280;63614;56.026;35.960;2023-05-07T04:55:08;100518.34;;;15.44;27.74
75045;BME280;63614;56.026;35.960;2023-05-07T04:57:37;100517.94;;;14.54;27.98
75045;BME280;63614;56.026;35.960;2023-05-07T05:00:06;100523.13;;;13.67;29.19
75045;BME280;63614;56.026;35.960;2023-05-07T05:02:34;100511.88;;;14.32;28.63
75045;BME280;63614;56.026;35.960;2023-05-07T05:05:01;100516.38;;;14.39;28.23
75045;BME280;63614;56.026;35.960;2023-05-07T05:07:49;100518.31;;;14.66;28.08
75045;BME280;63614;56.026;35.960;2023-05-07T05:10:19;100516.25;;;15.05;27.67
75045;BME280;63614;56.026;35.960;2023-05-07T05:12:46;100513.63;;;15.05;28.05
75045;BME280;63614;56.026;35.960;2023-05-07T05:15:12;100511.09;;;15.18;27.40
75045;BME280;63614;56.026;35.960;2023-05-07T05:17:39;100518.91;;;14.90;26.60
75045;BME280;63614;56.026;35.960;2023-05-07T05:20:06;100523.28;;;14.83;27.07
75045;BME280;63614;56.026;35.960;2023-05-07T05:22:32;100529.50;;;14.24;27.24
75045;BME280;63614;56.026;35.960;2023-05-07T05:24:59;100530.69;;;13.76;28.77
75045;BME280;63614;56.026;35.960;2023-05-07T05:27:28;100524.88;;;14.26;27.29
75045;BME280;63614;56.026;35.960;2023-05-07T05:29:54;100530.16;;;13.66;27.64
75045;BME280;63614;56.026;35.960;2023-05-07T05:32:38;100530.94;;;14.11;26.39
75045;BME280;63614;56.026;35.960;2023-05-07T05:35:05;100527.16;;;14.65;26.41
75045;BME280;63614;56.026;35.960;2023-05-07T05:37:31;100529.34;;;14.83;26.17
75045;BME280;63614;56.026;35.960;2023-05-07T05:39:59;100531.47;;;14.73;25.89
75045;BME280;63614;56.026;35.960;2023-05-07T05:42:30;100526.91;;;15.03;25.99
75045;BME280;63614;56.026;35.960;2023-05-07T05:45:14;100533.44;;;15.42;26.12
75045;BME280;63614;56.026;35.960;2023-05-07T05:47:40;100521.44;;;15.26;25.52
75045;BME280;63614;56.026;35.960;2023-05-07T05:50:07;100522.56;;;14.52;25.54
75045;BME280;63614;56.026;35.960;2023-05-07T05:52:33;100533.03;;;14.01;25.82
75045;BME280;63614;56.026;35.960;2023-05-07T05:54:59;100522.63;;;14.59;25.37
75045;BME280;63614;56.026;35.960;2023-05-07T05:57:25;100519.97;;;13.71;25.82
75045;BME280;63614;56.026;35.960;2023-05-07T05:59:51;100528.69;;;13.49;26.39
75045;BME280;63614;56.026;35.960;2023-05-07T06:02:17;100534.22;;;12.93;26.88
75045;BME280;63614;56.026;35.960;2023-05-07T06:04:44;100533.47;;;11.65;28.93
75045;BME280;63614;56.026;35.960;2023-05-07T06:07:13;100531.03;;;11.55;29.21
75045;BME280;63614;56.026;35.960;2023-05-07T06:09:40;100534.16;;;11.09;29.57
75045;BME280;63614;56.026;35.960;2023-05-07T06:12:06;100532.88;;;10.38;29.95
75045;BME280;63614;56.026;35.960;2023-05-07T06:14:32;100545.38;;;11.02;29.58
75045;BME280;63614;56.026;35.960;2023-05-07T06:16:58;100527.06;;;10.52;30.57
75045;BME280;63614;56.026;35.960;2023-05-07T06:19:25;100540.44;;;9.89;31.30
75045;BME280;63614;56.026;35.960;2023-05-07T06:21:55;100545.41;;;9.74;31.79
75045;BME280;63614;56.026;35.960;2023-05-07T06:24:28;100537.47;;;9.31;32.30
75045;BME280;63614;56.026;35.960;2023-05-07T06:26:54;100542.59;;;9.41;31.74
75045;BME280;63614;56.026;35.960;2023-05-07T06:29:20;100549.97;;;9.09;32.58
75045;BME280;63614;56.026;35.960;2023-05-07T06:31:46;100532.22;;;9.23;32.16
75045;BME280;63614;56.026;35.960;2023-05-07T06:34:12;100546.03;;;9.23;31.29
75045;BME280;63614;56.026;35.960;2023-05-07T06:36:41;100538.91;;;9.25;30.27
75045;BME280;63614;56.026;35.960;2023-05-07T06:39:28;100540.94;;;8.96;31.19
75045;BME280;63614;56.026;35.960;2023-05-07T06:41:54;100544.19;;;8.52;32.53
75045;BME280;63614;56.026;35.960;2023-05-07T06:44:25;100544.03;;;7.98;32.96
75045;BME280;63614;56.026;35.960;2023-05-07T06:47:16;100547.88;;;7.84;33.25
75045;BME280;63614;56.026;35.960;2023-05-07T06:49:45;100537.53;;;7.84;32.94
75045;BME280;63614;56.026;35.960;2023-05-07T06:52:14;100546.34;;;8.66;32.27
75045;BME280;63614;56.026;35.960;2023-05-07T06:54:40;100543.09;;;9.00;30.16
75045;BME280;63614;56.026;35.960;2023-05-07T06:57:07;100544.69;;;8.65;30.02
75045;BME280;63614;56.026;35.960;2023-05-07T06:59:33;100542.31;;;8.72;31.21
75045;BME280;63614;56.026;35.960;2023-05-07T07:01:59;100544.94;;;8.07;31.76
75045;BME280;63614;56.026;35.960;2023-05-07T07:04:25;100539.84;;;8.15;31.79
75045;BME280;63614;56.026;35.960;2023-05-07T07:06:59;100548.50;;;8.89;32.17
75045;BME280;63614;56.026;35.960;2023-05-07T07:09:25;100546.22;;;9.30;30.75
75045;BME280;63614;56.026;35.960;2023-05-07T07:11:52;100544.47;;;9.57;29.69
75045;BME280;63614;56.026;35.960;2023-05-07T07:14:18;100544.72;;;9.98;30.63
75045;BME280;63614;56.026;35.960;2023-05-07T07:16:48;100545.03;;;9.95;30.72
75045;BME280;63614;56.026;35.960;2023-05-07T07:19:16;100540.88;;;9.50;29.34
75045;BME280;63614;56.026;35.960;2023-05-07T07:21:42;100541.94;;;9.03;29.53
75045;BME280;63614;56.026;35.960;2023-05-07T07:24:13;100545.06;;;8.88;30.03
75045;BME280;63614;56.026;35.960;2023-05-07T07:26:45;100542.13;;;8.28;31.03
75045;BME280;63614;56.026;35.960;2023-05-07T07:29:12;100542.75;;;8.40;31.73
75045;BME280;63614;56.026;35.960;2023-05-07T07:31:39;100546.56;;;8.45;31.51
75045;BME280;63614;56.026;35.960;2023-05-07T07:34:06;100545.94;;;8.61;31.18
75045;BME280;63614;56.026;35.960;2023-05-07T07:36:32;100539.78;;;8.62;31.12
75045;BME280;63614;56.026;35.960;2023-05-07T07:38:58;100543.81;;;8.75;30.80
75045;BME280;63614;56.026;35.960;2023-05-07T07:41:24;100547.25;;;8.37;29.92
75045;BME280;63614;56.026;35.960;2023-05-07T07:43:50;100539.56;;;8.18;30.24
75045;BME280;63614;56.026;35.960;2023-05-07T07:46:18;100530.28;;;7.88;30.44
75045;BME280;63614;56.026;35.960;2023-05-07T07:48:44;100530.72;;;7.83;31.05
75045;BME280;63614;56.026;35.960;2023-05-07T07:51:10;100535.28;;;8.36;31.33
75045;BME280;63614;56.026;35.960;2023-05-07T07:53:40;100540.59;;;8.63;30.69
75045;BME280;63614;56.026;35.960;2023-05-07T07:56:06;100535.78;;;8.40;30.07
75045;BME280;63614;56.026;35.960;2023-05-07T07:58:34;100529.50;;;8.70;29.74
75045;BME280;63614;56.026;35.960;2023-05-07T08:01:01;100531.34;;;9.14;29.49
75045;BME280;63614;56.026;35.960;2023-05-07T08:03:33;100534.69;;;9.24;27.39
75045;BME280;63614;56.026;35.960;2023-05-07T08:06:00;100530.88;;;9.37;27.34
75045;BME280;63614;56.026;35.960;2023-05-07T08:08:27;100532.56;;;9.02;28.24
75045;BME280;63614;56.026;35.960;2023-05-07T08:10:54;100529.03;;;8.57;28.84
75045;BME280;63614;56.026;35.960;2023-05-07T08:13:27;100526.97;;;8.79;29.04
75045;BME280;63614;56.026;35.960;2023-05-07T08:15:53;100525.50;;;8.94;29.07
75045;BME280;63614;56.026;35.960;2023-05-07T08:18:19;100527.66;;;8.99;29.21
75045;BME280;63614;56.026;35.960;2023-05-07T08:20:46;100519.31;;;9.31;29.36
75045;BME280;63614;56.026;35.960;2023-05-07T08:23:18;100524.84;;;9.54;29.11
75045;BME280;63614;56.026;35.960;2023-05-07T08:25:45;100519.63;;;8.74;30.09
75045;BME280;63614;56.026;35.960;2023-05-07T08:28:12;100521.84;;;8.87;30.18
75045;BME280;63614;56.026;35.960;2023-05-07T08:30:39;100518.06;;;9.17;29.99
75045;BME280;63614;56.026;35.960;2023-05-07T08:33:12;100518.94;;;9.70;30.07
75045;BME280;63614;56.026;35.960;2023-05-07T08:35:38;100509.56;;;9.51;29.42
75045;BME280;63614;56.026;35.960;2023-05-07T08:38:06;100508.66;;;9.16;28.24
75045;BME280;63614;56.026;35.960;2023-05-07T08:40:37;100515.56;;;9.07;28.14
75045;BME280;63614;56.026;35.960;2023-05-07T08:43:08;100514.56;;;9.44;27.50
75045;BME280;63614;56.026;35.960;2023-05-07T08:45:39;100515.09;;;9.56;27.60
75045;BME280;63614;56.026;35.960;2023-05-07T08:48:15;100504.06;;;10.23;26.72
75045;BME280;63614;56.026;35.960;2023-05-07T08:50:42;100503.88;;;10.67;26.50
75045;BME280;63614;56.026;35.960;2023-05-07T08:53:10;100503.97;;;10.49;27.34
75045;BME280;63614;56.026;35.960;2023-05-07T08:55:37;100501.75;;;10.20;27.38
75045;BME280;63614;56.026;35.960;2023-05-07T08:58:03;100505.94;;;10.13;27.63
75045;BME280;63614;56.026;35.960;2023-05-07T09:00:32;100510.41;;;9.60;27.56
75045;BME280;63614;56.026;35.960;2023-05-07T09:03:00;100512.28;;;9.23;27.37
75045;BME280;63614;56.026;35.960;2023-05-07T09:05:27;100517.44;;;9.41;27.76
75045;BME280;63614;56.026;35.960;2023-05-07T09:07:52;100522.00;;;9.48;28.10
75045;BME280;63614;56.026;35.960;2023-05-07T09:10:22;100515.41;;;9.53;27.46
75045;BME280;63614;56.026;35.960;2023-05-07T09:12:49;100512.56;;;9.64;26.90
75045;BME280;63614;56.026;35.960;2023-05-07T09:15:18;100506.31;;;10.18;26.50
75045;BME280;63614;56.026;35.960;2023-05-07T09:17:44;100504.13;;;10.48;26.09
75045;BME280;63614;56.026;35.960;2023-05-07T09:20:10;100500.31;;;11.01;25.20
75045;BME280;63614;56.026;35.960;2023-05-07T09:22:37;100496.69;;;11.35;25.28
75045;BME280;63614;56.026;35.960;2023-05-07T09:25:09;100494.56;;;11.39;26.09
75045;BME280;63614;56.026;35.960;2023-05-07T09:27:37;100496.50;;;11.53;26.19
75045;BME280;63614;56.026;35.960;2023-05-07T09:30:05;100496.22;;;11.40;25.40
75045;BME280;63614;56.026;35.960;2023-05-07T09:32:36;100488.69;;;11.45;25.79
75045;BME280;63614;56.026;35.960;2023-05-07T09:35:17;100490.88;;;11.25;25.33
75045;BME280;63614;56.026;35.960;2023-05-07T09:37:46;100494.28;;;11.09;25.25
75045;BME280;63614;56.026;35.960;2023-05-07T09:40:24;100490.19;;;11.23;25.03
75045;BME280;63614;56.026;35.960;2023-05-07T09:42:51;100499.31;;;11.35;26.15
75045;BME280;63614;56.026;35.960;2023-05-07T09:45:28;100503.56;;;10.87;26.05
75045;BME280;63614;56.026;35.960;2023-05-07T09:47:57;100504.03;;;10.90;26.18
75045;BME280;63614;56.026;35.960;2023-05-07T09:50:36;100503.50;;;10.54;25.96
75045;BME280;63614;56.026;35.960;2023-05-07T09:53:03;100499.72;;;10.40;26.57
75045;BME280;63614;56.026;35.960;2023-05-07T09:55:33;100500.81;;;10.21;26.46
75045;BME280;63614;56.026;35.960;2023-05-07T09:57:59;100506.03;;;10.29;26.49
75045;BME280;63614;56.026;35.960;2023-05-07T10:00:28;100500.41;;;10.50;26.54
75045;BME280;63614;56.026;35.960;2023-05-07T10:03:04;100492.31;;;10.19;26.63
75045;BME280;63614;56.026;35.960;2023-05-07T10:05:40;100513.28;;;9.75;26.22
75045;BME280;63614;56.026;35.960;2023-05-07T10:08:09;100513.31;;;9.83;25.94
75045;BME280;63614;56.026;35.960;2023-05-07T10:10:37;100510.03;;;9.81;26.53
75045;BME280;63614;56.026;35.960;2023-05-07T10:13:06;100504.41;;;9.59;26.37
75045;BME280;63614;56.026;35.960;2023-05-07T10:15:37;100508.69;;;9.69;26.94
75045;BME280;63614;56.026;35.960;2023-05-07T10:18:06;100497.50;;;10.11;26.74
75045;BME280;63614;56.026;35.960;2023-05-07T10:20:32;100507.59;;;10.14;26.66
75045;BME280;63614;56.026;35.960;2023-05-07T10:23:01;100492.59;;;10.34;27.48
75045;BME280;63614;56.026;35.960;2023-05-07T10:25:35;100485.31;;;10.62;27.37
75045;BME280;63614;56.026;35.960;2023-05-07T10:28:08;100495.06;;;11.26;26.55
75045;BME280;63614;56.026;35.960;2023-05-07T10:33:42;100493.41;;;11.50;24.80
75045;BME280;63614;56.026;35.960;2023-05-07T10:36:11;100488.25;;;11.25;24.52
75045;BME280;63614;56.026;35.960;2023-05-07T10:38:37;100491.03;;;10.99;24.30
75045;BME280;63614;56.026;35.960;2023-05-07T10:41:05;100492.63;;;10.75;24.50
75045;BME280;63614;56.026;35.960;2023-05-07T10:43:41;100492.16;;;10.63;24.73
75045;BME280;63614;56.026;35.960;2023-05-07T10:46:16;100477.47;;;10.46;25.17
75045;BME280;63614;56.026;35.960;2023-05-07T10:51:34;100493.72;;;10.48;26.57
75045;BME280;63614;56.026;35.960;2023-05-07T10:56:43;100496.06;;;11.00;25.72
75045;BME280;63614;56.026;35.960;2023-05-07T11:01:55;100492.00;;;10.89;25.36
75045;BME280;63614;56.026;35.960;2023-05-07T11:04:32;100493.47;;;10.84;25.68
75045;BME280;63614;56.026;35.960;2023-05-07T11:07:27;100496.63;;;10.36;25.28
75045;BME280;63614;56.026;35.960;2023-05-07T11:10:02;100503.16;;;10.41;25.19
75045;BME280;63614;56.026;35.960;2023-05-07T11:12:55;100496.22;;;10.66;24.83
75045;BME280;63614;56.026;35.960;2023-05-07T11:15:47;100500.06;;;10.03;25.63
75045;BME280;63614;56.026;35.960;2023-05-07T11:18:23;100498.97;;;10.05;26.07
75045;BME280;63614;56.026;35.960;2023-05-07T11:20:55;100503.34;;;10.13;25.78
75045;BME280;63614;56.026;35.960;2023-05-07T11:26:27;100496.53;;;10.63;25.25
75045;BME280;63614;56.026;35.960;2023-05-07T11:28:53;100493.66;;;10.23;25.42
75045;BME280;63614;56.026;35.960;2023-05-07T11:31:26;100499.66;;;10.24;25.50
75045;BME280;63614;56.026;35.960;2023-05-07T11:33:56;100493.91;;;10.54;25.54
75045;BME280;63614;56.026;35.960;2023-05-07T11:36:24;100493.94;;;11.04;25.15
75045;BME280;63614;56.026;35.960;2023-05-07T11:38:52;100492.97;;;11.13;24.91
75045;BME280;63614;56.026;35.960;2023-05-07T11:41:18;100487.06;;;11.60;24.06
75045;BME280;63614;56.026;35.960;2023-05-07T11:43:57;100478.16;;;11.86;24.14
75045;BME280;63614;56.026;35.960;2023-05-07T11:46:24;100482.34;;;11.56;24.35
75045;BME280;63614;56.026;35.960;2023-05-07T11:48:57;100481.53;;;11.55;24.10
75045;BME280;63614;56.026;35.960;2023-05-07T11:51:24;100482.88;;;11.18;24.34
75045;BME280;63614;56.026;35.960;2023-05-07T11:53:53;100481.75;;;10.80;24.39
75045;BME280;63614;56.026;35.960;2023-05-07T11:56:19;100484.94;;;10.41;24.74
75045;BME280;63614;56.026;35.960;2023-05-07T11:58:47;100488.84;;;10.45;24.70
75045;BME280;63614;56.026;35.960;2023-05-07T12:01:14;100486.31;;;10.10;24.91
75045;BME280;63614;56.026;35.960;2023-05-07T12:03:41;100485.81;;;9.72;25.46
75045;BME280;63614;56.026;35.960;2023-05-07T12:06:08;100484.00;;;9.99;25.04
75045;BME280;63614;56.026;35.960;2023-05-07T12:08:37;100487.63;;;10.23;25.26
75045;BME280;63614;56.026;35.960;2023-05-07T12:11:07;100485.63;;;10.59;24.70
75045;BME280;63614;56.026;35.960;2023-05-07T12:13:33;100482.06;;;10.85;24.58
75045;BME280;63614;56.026;35.960;2023-05-07T12:15:59;100474.41;;;10.67;24.51
75045;BME280;63614;56.026;35.960;2023-05-07T12:18:26;100471.00;;;10.83;23.96
75045;BME280;63614;56.026;35.960;2023-05-07T12:20:52;100491.66;;;10.60;24.53
75045;BME280;63614;56.026;35.960;2023-05-07T12:23:19;100473.28;;;10.53;24.64
75045;BME280;63614;56.026;35.960;2023-05-07T12:25:45;100487.41;;;10.50;24.54
75045;BME280;63614;56.026;35.960;2023-05-07T12:28:19;100476.59;;;10.29;24.85
75045;BME280;63614;56.026;35.960;2023-05-07T12:30:47;100471.47;;;10.37;24.96
75045;BME280;63614;56.026;35.960;2023-05-07T12:33:18;100465.59;;;10.43;24.64
75045;BME280;63614;56.026;35.960;2023-05-07T12:35:47;100473.03;;;10.30;25.22
75045;BME280;63614;56.026;35.960;2023-05-07T12:38:14;100482.88;;;10.10;25.08
75045;BME280;63614;56.026;35.960;2023-05-07T12:40:53;100477.06;;;10.24;25.76
75045;BME280;63614;56.026;35.960;2023-05-07T12:43:21;100467.56;;;10.41;25.39
75045;BME280;63614;56.026;35.960;2023-05-07T12:45:50;100464.81;;;10.59;23.95
75045;BME280;63614;56.026;35.960;2023-05-07T12:48:17;100459.44;;;10.69;24.45
75045;BME280;63614;56.026;35.960;2023-05-07T12:50:44;100456.72;;;10.79;24.90
75045;BME280;63614;56.026;35.960;2023-05-07T12:53:11;100454.41;;;10.59;24.55
75045;BME280;63614;56.026;35.960;2023-05-07T12:55:49;100458.16;;;10.73;25.14
75045;BME280;63614;56.026;35.960;2023-05-07T12:58:29;100449.53;;;10.89;25.56
75045;BME280;63614;56.026;35.960;2023-05-07T13:00:58;100453.28;;;10.78;24.81
75045;BME280;63614;56.026;35.960;2023-05-07T13:03:29;100460.75;;;10.73;24.84